Impacts METAR Board
IDs:

KIAH - Houston/Bush Intl, TX, US

Updated at: 0900 UTC 18 Jan 2019
Potential Impact None Slight Moderate High
Time 17/21Z 17/22Z 17/23Z 18/00Z 18/01Z 18/02Z 18/03Z 18/04Z 18/05Z 18/06Z 18/07Z 18/08Z 18/09Z
Temp68 69 67 62 59 59 57 55 58 55 55 54 53
Dewpt58 58 58 58 58 58 56 55 57 55 55 54 53
Altim30.09 30.08 30.08 30.09 30.11 30.12 30.11 30.12 30.13 30.13 30.12 30.11 30.11
VIS10 10 10 10 10 10 10 10 7 6 5 5 2
CIG250 250 250 250 250 250 250 250 250 250 250 250 3
CoverBKNBKNBKNBKNBKNBKNBKNBKNBKNBKNOVCOVCOVC
FltCatVFRVFRVFRVFRVFRVFRVFRVFRVFRVFRMVFRMVFRLIFR
WX------------------BRBR MIFGBR MIFGBR
WDir280240240000022000000
WSpd7 6 6 0 0 0 0 3 0 0 0 0 0
WGst-- -- -- -- -- -- -- -- -- -- -- -- --
Raw hourly METARs
KIAH 172053Z 28007KT 10SM BKN250 20/14 A3009 RMK AO2 SLP190 T02000144 56027
KIAH 172153Z 24006KT 10SM BKN250 21/14 A3008 RMK AO2 SLP186 T02060144
KIAH 172253Z 24006KT 10SM BKN250 19/14 A3008 RMK AO2 SLP186 T01940144
KIAH 172353Z 00000KT 10SM BKN250 17/14 A3009 RMK AO2 SLP189 T01670144 10206 20167 55001
KIAH 180053Z 00000KT 10SM BKN250 15/14 A3011 RMK AO2 SLP194 T01500144
KIAH 180153Z 00000KT 10SM BKN250 15/14 A3012 RMK AO2 SLP198 T01500144
KIAH 180253Z 00000KT 10SM BKN250 14/13 A3011 RMK AO2 SLP197 T01390133 50008
KIAH 180353Z 22003KT 10SM BKN250 13/13 A3012 RMK AO2 SLP198 T01280128
KIAH 180453Z 00000KT 7SM BKN250 14/14 A3013 RMK AO2 SLP204 T01440139
KIAH 180553Z 00000KT 6SM BR BKN250 13/13 A3013 RMK AO2 SLP204 T01280128 10167 20122 402060122 51007
KIAH 180653Z 00000KT 5SM BR MIFG FEW007 OVC250 13/13 A3012 RMK AO2 SLP199 T01280128
KIAH 180753Z 00000KT 5SM BR MIFG FEW004 OVC250 12/12 A3011 RMK AO2 SLP194 T01220122
KIAH 180853Z 00000KT 2SM BR BKN003 OVC250 12/12 A3011 RMK AO2 SLP195 VIS N-NE 3/4 T01170117 55004



Page loaded:  09:10 UTC  |   01:10 AM Pacific  |   02:10 AM Mountain  |   03:10 AM Central  |   04:10 AM Eastern

 

ADVISORIES

FORECASTS

FORECASTS

OBSERVATIONS

USER TOOLS

ABOUT US